Time;durP1;ratioP1;P1;durP2;ratioP2;P2;SDS_P1;SDS_P2;PMS_P1;PMS_P2;Temp;Humidity;BMP_temperature;BMP_pressure;BME280_temperature;BME280_humidity;BME280_pressure;Samples;Min_cycle;Max_cycle;Signal;HPM_P1;HPM_P2
2022/11/07 00:01:16;;;;;;;15.57;7.25;;;;;;;;;;6095246;23;20017;-80
2022/11/07 00:03:42;;;;;;;9.40;6.40;;;;;;;;;;6120404;23;20014;-81
2022/11/07 00:06:08;;;;;;;12.10;7.55;;;;;;;;;;6120786;23;20010;-81
2022/11/07 00:08:34;;;;;;;9.38;6.28;;;;;;;;;;6122338;23;20014;-81
2022/11/07 00:11:01;;;;;;;12.15;6.00;;;;;;;;;;6073412;23;20072;-81
2022/11/07 00:13:27;;;;;;;8.82;6.50;;;;;;;;;;6097393;23;20023;-81
2022/11/07 00:15:54;;;;;;;15.68;6.85;;;;;;;;;;6122244;23;20014;-81
2022/11/07 00:18:20;;;;;;;10.90;6.95;;;;;;;;;;6121933;23;20096;-81
2022/11/07 00:20:46;;;;;;;13.18;7.63;;;;;;;;;;6097432;23;20069;-81
2022/11/07 00:23:12;;;;;;;10.18;7.18;;;;;;;;;;6120720;23;20108;-81
2022/11/07 00:25:38;;;;;;;15.48;7.57;;;;;;;;;;6122535;23;20017;-82
2022/11/07 00:28:05;;;;;;;12.35;8.00;;;;;;;;;;6121629;23;20042;-82
2022/11/07 00:30:31;;;;;;;11.57;7.45;;;;;;;;;;6122340;23;20018;-81
2022/11/07 00:32:57;;;;;;;14.70;7.13;;;;;;;;;;6122668;23;20389;-81
2022/11/07 00:35:23;;;;;;;12.38;7.35;;;;;;;;;;6099495;23;20093;-81
2022/11/07 00:37:49;;;;;;;13.18;7.07;;;;;;;;;;6123918;23;20318;-81
2022/11/07 00:40:16;;;;;;;11.63;6.43;;;;;;;;;;6123316;23;20072;-81
2022/11/07 00:42:42;;;;;;;15.13;6.30;;;;;;;;;;6123652;23;20014;-81
2022/11/07 00:45:08;;;;;;;8.43;6.53;;;;;;;;;;6099131;23;20088;-81
2022/11/07 00:47:34;;;;;;;11.65;6.47;;;;;;;;;;6122985;23;20014;-81
2022/11/07 00:50:00;;;;;;;11.25;7.55;;;;;;;;;;6123840;23;20021;-81
2022/11/07 00:52:26;;;;;;;12.70;7.60;;;;;;;;;;6075107;23;20084;-81
2022/11/07 00:54:52;;;;;;;12.57;7.68;;;;;;;;;;6096670;23;20053;-81
2022/11/07 00:57:18;;;;;;;14.48;7.32;;;;;;;;;;6072930;23;20476;-81
2022/11/07 00:59:44;;;;;;;9.15;6.38;;;;;;;;;;6073901;23;20059;-82
2022/11/07 01:02:10;;;;;;;11.68;6.70;;;;;;;;;;6097623;23;20013;-82
2022/11/07 01:07:21;;;;;;;12.77;6.32;;;;;;;;;;6123667;23;20017;-81
2022/11/07 01:09:47;;;;;;;9.40;5.88;;;;;;;;;;6098129;23;20010;-81
2022/11/07 01:12:13;;;;;;;9.00;5.43;;;;;;;;;;6075118;23;20029;-82
2022/11/07 01:14:39;;;;;;;12.45;6.15;;;;;;;;;;6123419;23;20014;-81
2022/11/07 01:17:05;;;;;;;12.57;7.38;;;;;;;;;;6099353;23;20515;-81
2022/11/07 01:19:31;;;;;;;10.07;5.88;;;;;;;;;;6051461;23;20068;-82
2022/11/07 01:21:58;;;;;;;9.93;5.32;;;;;;;;;;6123675;23;20018;-82
2022/11/07 01:24:24;;;;;;;13.02;5.93;;;;;;;;;;6051689;23;20010;-82
2022/11/07 01:26:50;;;;;;;8.90;5.72;;;;;;;;;;6123668;23;20041;-82
2022/11/07 01:29:17;;;;;;;10.75;6.07;;;;;;;;;;6123687;23;20010;-81
2022/11/07 01:31:43;;;;;;;8.90;6.40;;;;;;;;;;6074924;23;20033;-82
2022/11/07 01:34:09;;;;;;;15.15;7.55;;;;;;;;;;6098705;23;20018;-81
2022/11/07 01:36:35;;;;;;;11.65;6.55;;;;;;;;;;6098681;23;20022;-81
2022/11/07 01:39:01;;;;;;;13.35;6.82;;;;;;;;;;6098644;23;20413;-81
2022/11/07 01:41:29;;;;;;;16.35;8.30;;;;;;;;;;6099200;23;20341;-81
2022/11/07 01:43:59;;;;;;;11.75;6.15;;;;;;;;;;6123057;23;20053;-81
2022/11/07 01:46:32;;;;;;;12.88;6.00;;;;;;;;;;6123078;23;20018;-81
2022/11/07 01:49:01;;;;;;;11.23;6.65;;;;;;;;;;6123222;23;20014;-81
2022/11/07 01:51:29;;;;;;;14.93;5.50;;;;;;;;;;6123384;23;20018;-81
2022/11/07 01:53:55;;;;;;;13.45;6.05;;;;;;;;;;6122900;23;20018;-81
2022/11/07 01:56:23;;;;;;;11.57;6.05;;;;;;;;;;6121758;23;20028;-81
2022/11/07 01:58:50;;;;;;;10.98;5.60;;;;;;;;;;6122317;23;20021;-81
2022/11/07 02:01:16;;;;;;;13.00;6.43;;;;;;;;;;6098665;23;20022;-81
2022/11/07 02:03:43;;;;;;;9.30;4.90;;;;;;;;;;6122884;23;20014;-81
2022/11/07 02:06:13;;;;;;;11.48;5.13;;;;;;;;;;6074694;23;20345;-81
2022/11/07 02:08:39;;;;;;;10.00;5.22;;;;;;;;;;6123185;23;20021;-81
2022/11/07 02:11:06;;;;;;;13.52;5.53;;;;;;;;;;6123318;23;20021;-81
2022/11/07 02:13:32;;;;;;;16.58;5.47;;;;;;;;;;6098500;23;20018;-81
2022/11/07 02:15:59;;;;;;;11.55;5.30;;;;;;;;;;6098341;23;20017;-81
2022/11/07 02:18:27;;;;;;;8.57;5.28;;;;;;;;;;6122851;23;20468;-81
2022/11/07 02:20:56;;;;;;;11.73;5.28;;;;;;;;;;6122111;23;20610;-81
2022/11/07 02:23:29;;;;;;;10.13;5.03;;;;;;;;;;6098172;23;20089;-81
2022/11/07 02:25:56;;;;;;;9.52;5.20;;;;;;;;;;6098726;23;20098;-81
2022/11/07 02:28:23;;;;;;;9.40;4.55;;;;;;;;;;6123114;23;20014;-81
2022/11/07 02:30:49;;;;;;;13.27;4.25;;;;;;;;;;6122330;23;20029;-81
2022/11/07 02:33:16;;;;;;;9.30;4.57;;;;;;;;;;6098283;23;20464;-81
2022/11/07 02:35:44;;;;;;;8.25;4.05;;;;;;;;;;6122321;23;20024;-81
2022/11/07 02:38:25;;;;;;;10.13;4.18;;;;;;;;;;6120308;23;20053;-81
2022/11/07 02:41:11;;;;;;;16.25;4.85;;;;;;;;;;6119545;23;20424;-81
2022/11/07 02:43:38;;;;;;;9.00;5.22;;;;;;;;;;6069858;23;20102;-81
2022/11/07 02:46:06;;;;;;;7.57;4.72;;;;;;;;;;6070230;23;20018;-81
2022/11/07 02:48:40;;;;;;;12.95;5.82;;;;;;;;;;6072396;23;20021;-81
2022/11/07 02:51:06;;;;;;;17.08;5.13;;;;;;;;;;6120693;23;20028;-81
2022/11/07 02:53:32;;;;;;;7.78;3.85;;;;;;;;;;6096888;23;20100;-81
2022/11/07 02:55:58;;;;;;;17.13;5.00;;;;;;;;;;6097469;23;20464;-82
2022/11/07 02:58:24;;;;;;;8.90;3.33;;;;;;;;;;6097868;23;20061;-81
2022/11/07 03:00:50;;;;;;;7.70;4.25;;;;;;;;;;6121939;23;20014;-81
2022/11/07 03:03:16;;;;;;;11.25;4.38;;;;;;;;;;6121957;23;20021;-81
2022/11/07 03:05:42;;;;;;;14.20;5.28;;;;;;;;;;6095869;23;20160;-81
2022/11/07 03:08:09;;;;;;;8.23;4.78;;;;;;;;;;6117853;23;20020;-81
2022/11/07 03:10:35;;;;;;;9.60;4.88;;;;;;;;;;6094044;23;20468;-82
2022/11/07 03:13:01;;;;;;;15.15;6.38;;;;;;;;;;6094462;23;20017;-82
2022/11/07 03:15:27;;;;;;;11.75;5.28;;;;;;;;;;6117816;23;20021;-82
2022/11/07 03:17:53;;;;;;;10.65;4.45;;;;;;;;;;6118439;23;20262;-82
2022/11/07 03:20:19;;;;;;;9.23;4.68;;;;;;;;;;6118801;23;20014;-82
2022/11/07 03:22:46;;;;;;;13.30;5.75;;;;;;;;;;6118704;23;20021;-82
2022/11/07 03:25:12;;;;;;;7.85;3.75;;;;;;;;;;6118821;23;20025;-82
2022/11/07 03:27:48;;;;;;;12.27;5.68;;;;;;;;;;6094600;23;20017;-82
2022/11/07 03:30:15;;;;;;;11.60;4.72;;;;;;;;;;6069890;23;20069;-81
2022/11/07 03:32:41;;;;;;;10.13;3.97;;;;;;;;;;6118011;23;20092;-81
2022/11/07 03:35:07;;;;;;;7.88;3.65;;;;;;;;;;6118426;23;20014;-81
2022/11/07 03:37:33;;;;;;;7.55;3.67;;;;;;;;;;6118383;23;20029;-81
2022/11/07 03:40:00;;;;;;;9.38;3.83;;;;;;;;;;6118694;23;20014;-82
2022/11/07 03:42:26;;;;;;;11.10;3.63;;;;;;;;;;6046095;23;20014;-81
2022/11/07 03:44:52;;;;;;;13.60;3.90;;;;;;;;;;6118094;23;20014;-81
2022/11/07 03:47:18;;;;;;;8.13;3.20;;;;;;;;;;6118729;23;20375;-82
2022/11/07 03:49:44;;;;;;;8.80;3.40;;;;;;;;;;6093938;23;20096;-81
2022/11/07 03:52:10;;;;;;;11.65;3.20;;;;;;;;;;6093697;23;20069;-81
2022/11/07 03:54:36;;;;;;;9.93;3.72;;;;;;;;;;6070233;23;20344;-81
2022/11/07 03:57:02;;;;;;;13.48;4.45;;;;;;;;;;6118356;23;20021;-81
2022/11/07 03:59:28;;;;;;;6.60;3.50;;;;;;;;;;6093884;23;20437;-82
2022/11/07 04:01:54;;;;;;;10.77;4.50;;;;;;;;;;6118463;23;20135;-82
2022/11/07 04:04:20;;;;;;;13.48;5.30;;;;;;;;;;6094293;23;20050;-82
2022/11/07 04:06:46;;;;;;;10.80;3.58;;;;;;;;;;6093937;23;20269;-82
2022/11/07 04:09:12;;;;;;;12.63;4.43;;;;;;;;;;6119691;23;20136;-82
2022/11/07 04:17:18;;;;;;;12.57;4.53;;;;;;;;;;6095586;23;20096;-82
2022/11/07 04:19:48;;;;;;;8.45;4.82;;;;;;;;;;6095062;23;20014;-82
2022/11/07 04:22:15;;;;;;;10.18;4.38;;;;;;;;;;6120040;23;20018;-82
2022/11/07 04:24:42;;;;;;;16.70;5.25;;;;;;;;;;6071540;23;20121;-82
2022/11/07 04:29:56;;;;;;;13.32;5.40;;;;;;;;;;6120674;23;20453;-81
2022/11/07 04:32:23;;;;;;;8.32;4.47;;;;;;;;;;6119734;23;20014;-81
2022/11/07 04:34:52;;;;;;;11.88;4.63;;;;;;;;;;6119751;23;20014;-81
2022/11/07 04:37:19;;;;;;;17.30;5.90;;;;;;;;;;6120447;23;20416;-81
2022/11/07 04:39:45;;;;;;;11.00;4.78;;;;;;;;;;6119833;23;20017;-81
2022/11/07 04:42:11;;;;;;;9.98;4.90;;;;;;;;;;6071487;23;20045;-81
2022/11/07 04:44:37;;;;;;;15.80;4.97;;;;;;;;;;6094953;23;20447;-81
2022/11/07 04:47:03;;;;;;;8.50;4.30;;;;;;;;;;6095378;23;20021;-81
2022/11/07 04:49:29;;;;;;;13.82;4.72;;;;;;;;;;6120867;23;20101;-81
2022/11/07 04:51:56;;;;;;;13.88;5.03;;;;;;;;;;6097686;23;20018;-81
2022/11/07 04:54:22;;;;;;;12.60;5.00;;;;;;;;;;6122180;23;20037;-81
2022/11/07 04:56:48;;;;;;;13.82;4.25;;;;;;;;;;6098253;23;20017;-81
2022/11/07 04:59:14;;;;;;;11.52;5.18;;;;;;;;;;6120959;23;20064;-81
2022/11/07 05:01:40;;;;;;;11.35;4.13;;;;;;;;;;6073424;23;20014;-81
2022/11/07 05:04:06;;;;;;;10.20;4.65;;;;;;;;;;6122478;23;20517;-82
2022/11/07 05:06:36;;;;;;;9.95;4.22;;;;;;;;;;6122032;23;20010;-81
2022/11/07 05:09:02;;;;;;;14.88;4.25;;;;;;;;;;6074069;23;20046;-81
2022/11/07 05:11:28;;;;;;;15.43;4.05;;;;;;;;;;6123185;23;20028;-81
2022/11/07 05:13:54;;;;;;;9.10;3.55;;;;;;;;;;6098480;23;20507;-81
2022/11/07 05:16:20;;;;;;;7.57;3.83;;;;;;;;;;6098626;23;20069;-81
2022/11/07 05:18:46;;;;;;;6.78;3.90;;;;;;;;;;6095637;23;20014;-81
2022/11/07 05:21:13;;;;;;;10.07;4.00;;;;;;;;;;6120655;23;20096;-81
2022/11/07 05:23:39;;;;;;;9.35;3.95;;;;;;;;;;6121011;23;20038;-81
2022/11/07 05:26:05;;;;;;;14.48;4.18;;;;;;;;;;6097149;23;20461;-81
2022/11/07 05:28:31;;;;;;;10.63;3.42;;;;;;;;;;6095958;23;20152;-81
2022/11/07 05:30:59;;;;;;;8.77;4.00;;;;;;;;;;6120336;23;20109;-81
2022/11/07 05:33:25;;;;;;;10.25;3.97;;;;;;;;;;6120552;23;20076;-81
2022/11/07 05:35:51;;;;;;;15.05;5.25;;;;;;;;;;6120861;23;20024;-81
2022/11/07 05:38:17;;;;;;;12.23;4.75;;;;;;;;;;6120660;23;20017;-81
2022/11/07 05:40:43;;;;;;;18.42;5.43;;;;;;;;;;6122563;23;20459;-81
2022/11/07 05:43:12;;;;;;;17.85;4.50;;;;;;;;;;6122498;23;20368;-81
2022/11/07 05:45:39;;;;;;;9.60;3.67;;;;;;;;;;6122287;23;20018;-81
2022/11/07 05:48:06;;;;;;;13.57;4.13;;;;;;;;;;6097369;23;20032;-81
2022/11/07 05:50:33;;;;;;;10.70;4.18;;;;;;;;;;6122173;23;20010;-82
2022/11/07 05:52:59;;;;;;;10.52;4.45;;;;;;;;;;6073474;23;20464;-81
2022/11/07 05:55:25;;;;;;;10.00;4.03;;;;;;;;;;6121701;23;20025;-81
2022/11/07 05:57:52;;;;;;;6.45;3.20;;;;;;;;;;6096295;23;20337;-81
2022/11/07 06:00:18;;;;;;;8.30;3.72;;;;;;;;;;6121194;23;20014;-81
2022/11/07 06:02:44;;;;;;;9.48;3.95;;;;;;;;;;6119988;23;20602;-82
2022/11/07 06:05:11;;;;;;;8.75;4.90;;;;;;;;;;6119039;23;20088;-82
2022/11/07 06:07:38;;;;;;;8.75;4.80;;;;;;;;;;6121585;23;20017;-81
2022/11/07 06:10:05;;;;;;;10.77;4.85;;;;;;;;;;6120097;23;20018;-81
2022/11/07 06:12:31;;;;;;;9.82;4.25;;;;;;;;;;6120319;23;20049;-81
2022/11/07 06:14:57;;;;;;;7.00;3.40;;;;;;;;;;6122164;23;20441;-81
2022/11/07 06:17:23;;;;;;;7.03;3.42;;;;;;;;;;6121898;23;20014;-81
2022/11/07 06:19:49;;;;;;;7.95;4.18;;;;;;;;;;6097724;23;20301;-81
2022/11/07 06:22:15;;;;;;;11.35;3.25;;;;;;;;;;6097964;23;20089;-81
2022/11/07 06:24:41;;;;;;;5.45;3.78;;;;;;;;;;6122155;23;20025;-81
2022/11/07 06:27:07;;;;;;;9.23;3.30;;;;;;;;;;6122243;23;20429;-81
2022/11/07 06:29:33;;;;;;;8.77;3.60;;;;;;;;;;6122615;23;20014;-81
2022/11/07 06:31:59;;;;;;;6.75;3.17;;;;;;;;;;6050212;23;20662;-81
2022/11/07 06:34:26;;;;;;;8.85;3.15;;;;;;;;;;6049825;23;20014;-82
2022/11/07 06:36:53;;;;;;;9.93;3.63;;;;;;;;;;6122766;23;20018;-82
2022/11/07 06:39:19;;;;;;;7.07;3.67;;;;;;;;;;6123281;23;20014;-83
2022/11/07 06:41:45;;;;;;;13.63;4.40;;;;;;;;;;6097763;23;20018;-82
2022/11/07 06:44:11;;;;;;;11.00;5.00;;;;;;;;;;6049003;23;20465;-83
2022/11/07 06:46:37;;;;;;;9.88;5.05;;;;;;;;;;6095735;23;20017;-83
2022/11/07 06:49:33;;;;;;;11.25;5.90;;;;;;;;;;6119849;23;20496;-83
2022/11/07 06:51:59;;;;;;;7.45;4.63;;;;;;;;;;6072136;23;20022;-83
2022/11/07 06:54:25;;;;;;;12.05;5.30;;;;;;;;;;6122787;23;20405;-82
2022/11/07 06:56:51;;;;;;;12.65;5.22;;;;;;;;;;6097335;23;20025;-81
2022/11/07 06:59:17;;;;;;;13.52;5.97;;;;;;;;;;6121193;23;20014;-81
2022/11/07 07:01:43;;;;;;;9.32;5.18;;;;;;;;;;6072973;23;20018;-82
2022/11/07 07:04:10;;;;;;;12.50;5.53;;;;;;;;;;6073437;23;20017;-81
2022/11/07 07:06:38;;;;;;;9.88;5.25;;;;;;;;;;6122094;23;20377;-81
2022/11/07 07:09:05;;;;;;;10.43;5.75;;;;;;;;;;6121359;23;20097;-81
2022/11/07 07:11:32;;;;;;;10.93;4.80;;;;;;;;;;6096727;23;20068;-81
2022/11/07 07:13:58;;;;;;;9.93;3.97;;;;;;;;;;6120163;23;20508;-79
2022/11/07 07:16:24;;;;;;;13.77;5.85;;;;;;;;;;6120155;23;20014;-80
2022/11/07 07:18:50;;;;;;;8.63;5.18;;;;;;;;;;6071922;23;20223;-81
2022/11/07 07:21:16;;;;;;;11.93;5.07;;;;;;;;;;6121555;23;20358;-80
2022/11/07 07:23:42;;;;;;;17.48;6.65;;;;;;;;;;6120118;23;20041;-79
2022/11/07 07:26:11;;;;;;;16.95;6.28;;;;;;;;;;6094702;23;20049;-79
2022/11/07 07:28:37;;;;;;;11.13;5.40;;;;;;;;;;6116420;23;20440;-79
2022/11/07 07:31:29;;;;;;;11.40;5.43;;;;;;;;;;6117894;23;20014;-80
2022/11/07 07:33:58;;;;;;;13.93;6.03;;;;;;;;;;6112198;23;20053;-82
2022/11/07 07:36:25;;;;;;;8.80;5.82;;;;;;;;;;6092342;23;20177;-81
2022/11/07 07:38:51;;;;;;;15.48;5.90;;;;;;;;;;6118385;23;20021;-81
2022/11/07 07:41:18;;;;;;;10.07;5.80;;;;;;;;;;6116177;23;20405;-81
2022/11/07 07:43:44;;;;;;;13.50;6.78;;;;;;;;;;6069465;23;20461;-81
2022/11/07 07:46:13;;;;;;;16.35;6.30;;;;;;;;;;6070383;23;20149;-81
2022/11/07 07:48:39;;;;;;;11.48;6.63;;;;;;;;;;6118219;23;20018;-81
2022/11/07 07:51:05;;;;;;;16.55;6.60;;;;;;;;;;6117511;23;20353;-81
2022/11/07 07:53:31;;;;;;;14.95;8.13;;;;;;;;;;6070162;23;20258;-81
2022/11/07 07:55:58;;;;;;;20.42;6.30;;;;;;;;;;6069599;23;20148;-81
2022/11/07 07:58:24;;;;;;;18.80;6.57;;;;;;;;;;6117739;23;20351;-81
2022/11/07 08:00:52;;;;;;;20.40;7.45;;;;;;;;;;6092556;23;20018;-81
2022/11/07 08:03:18;;;;;;;17.10;7.47;;;;;;;;;;6118138;23;20010;-81
2022/11/07 08:05:44;;;;;;;15.50;6.60;;;;;;;;;;6068851;23;20018;-81
2022/11/07 08:08:10;;;;;;;11.15;5.97;;;;;;;;;;6118091;23;20085;-81
2022/11/07 08:10:36;;;;;;;10.30;5.07;;;;;;;;;;6069825;23;20020;-81
2022/11/07 08:13:02;;;;;;;11.93;5.82;;;;;;;;;;6117262;23;20014;-81
2022/11/07 08:15:28;;;;;;;14.13;5.50;;;;;;;;;;6115576;23;20022;-81
2022/11/07 08:17:54;;;;;;;18.08;6.72;;;;;;;;;;6117392;23;20428;-81
2022/11/07 08:20:23;;;;;;;14.48;5.75;;;;;;;;;;6117264;23;20026;-79
2022/11/07 08:22:49;;;;;;;19.85;6.55;;;;;;;;;;6116706;23;20018;-81
2022/11/07 08:25:16;;;;;;;13.63;5.35;;;;;;;;;;6117085;23;20249;-81
2022/11/07 08:27:42;;;;;;;17.85;6.95;;;;;;;;;;6068280;23;20010;-81
2022/11/07 08:30:09;;;;;;;14.23;7.40;;;;;;;;;;6091611;23;20021;-80
2022/11/07 08:32:35;;;;;;;15.20;5.90;;;10.60;99.90;;;;;;6093283;23;20014;-81
2022/11/07 08:35:00;;;;;;;14.40;7.07;;;11.30;99.90;;;;;;6117495;23;20388;-80
2022/11/07 08:37:26;;;;;;;18.67;7.10;;;;;;;;;;6117358;23;20017;-80
2022/11/07 08:39:52;;;;;;;12.02;7.03;;;;;;;;;;6116070;23;20503;-80
2022/11/07 08:42:19;;;;;;;12.80;5.78;;;;;;;;;;6117343;23;20044;-79
2022/11/07 08:44:45;;;;;;;14.20;6.85;;;;;;;;;;6067310;23;20014;-79
2022/11/07 08:47:11;;;;;;;12.55;7.00;;;;;;;;;;6116275;23;20017;-80
2022/11/07 08:49:37;;;;;;;19.33;6.75;;;;;;;;;;6092154;23;20025;-78
2022/11/07 08:52:03;;;;;;;12.82;6.35;;;;;;;;;;6116021;23;20021;-78
2022/11/07 08:54:29;;;;;;;16.45;6.85;;;;;;;;;;6116782;23;20026;-79
2022/11/07 08:56:55;;;;;;;13.82;7.03;;;;;;;;;;6117739;23;20064;-79
2022/11/07 08:59:21;;;;;;;16.85;7.35;;;;;;;;;;6118220;23;20140;-79
2022/11/07 09:01:48;;;;;;;15.32;7.60;;;11.30;99.90;;;;;;6067760;23;20266;-81
2022/11/07 09:04:14;;;;;;;11.50;6.50;;;;;;;;;;6093973;23;20014;-79
2022/11/07 09:06:41;;;;;;;15.70;6.22;;;;;;;;;;6118248;23;20021;-79
2022/11/07 09:09:07;;;;;;;12.57;7.00;;;;;;;;;;6120353;23;20010;-80
2022/11/07 09:11:33;;;;;;;11.93;5.63;;;;;;;;;;6096098;23;20045;-80
2022/11/07 09:13:59;;;;;;;12.05;6.22;;;;;;;;;;6094071;23;20101;-79
2022/11/07 09:16:25;;;;;;;16.75;6.25;;;;;;;;;;6095152;23;20391;-81
2022/11/07 09:18:52;;;;;;;10.10;5.40;;;;;;;;;;6094919;23;20014;-79
2022/11/07 09:21:18;;;;;;;10.50;5.45;;;;;;;;;;6118460;23;20373;-79
2022/11/07 09:23:45;;;;;;;18.08;6.63;;;;;;;;;;6118567;23;20089;-79
2022/11/07 09:26:11;;;;;;;10.38;4.82;;;;;;;;;;6120569;23;20010;-79
2022/11/07 09:28:37;;;;;;;12.40;5.90;;;;;;;;;;6093357;23;20037;-79
2022/11/07 09:31:04;;;;;;;10.32;6.00;;;;;;;;;;6119170;23;20021;-79
2022/11/07 09:33:30;;;;;;;10.77;5.45;;;;;;;;;;6069951;23;20041;-77
2022/11/07 09:36:06;;;;;;;13.13;5.75;;;;;;;;;;6094230;23;20150;-79
2022/11/07 09:38:32;;;;;;;12.27;5.53;;;;;;;;;;6095155;23;20021;-79
2022/11/07 09:41:20;;;;;;;17.77;6.38;;;;;;;;;;6117839;23;20093;-80
2022/11/07 09:44:19;;;;;;;9.40;5.05;;;;;;;;;;6117900;23;20096;-78
2022/11/07 09:47:00;;;;;;;16.55;5.20;;;;;;;;;;6046279;23;20329;-80
2022/11/07 09:49:43;;;;;;;16.50;5.13;;;;;;;;;;6118961;23;20006;-79
2022/11/07 09:52:28;;;;;;;16.17;5.95;;;;;;;;;;6117954;23;20072;-79
2022/11/07 09:55:04;;;;;;;11.95;5.28;;;;;;;;;;6091664;23;20040;-79
2022/11/07 09:57:32;;;;;;;17.52;5.28;;;;;;;;;;6117053;23;20043;-79
2022/11/07 10:00:00;;;;;;;10.88;5.45;;;;;;;;;;6092058;23;20022;-79
2022/11/07 10:02:37;;;;;;;14.82;5.75;;;;;;;;;;6117306;23;20022;-80
2022/11/07 10:05:04;;;;;;;10.82;6.10;;;;;;;;;;6092864;23;20025;-79
2022/11/07 10:07:30;;;;;;;12.43;5.45;;;;;;;;;;6117285;23;20014;-80
2022/11/07 10:10:20;;;;;;;13.95;5.50;;;;;;;;;;6118186;23;20113;-77
2022/11/07 10:12:57;;;;;;;14.38;5.13;;;;;;;;;;6103421;23;20400;-79
2022/11/07 10:15:26;;;;;;;10.45;5.20;;;;;;;;;;6118592;23;20010;-79
2022/11/07 10:18:06;;;;;;;12.95;5.97;;;;;;;;;;6117379;23;20077;-78
2022/11/07 10:20:53;;;;;;;16.33;5.13;;;;;;;;;;6118002;23;20487;-78
2022/11/07 10:23:37;;;;;;;11.75;5.47;;;;;;;;;;6118279;23;20014;-78
2022/11/07 10:26:09;;;;;;;13.18;5.25;;;;;;;;;;6117435;23;20041;-80
2022/11/07 10:28:47;;;;;;;14.60;5.78;;;11.50;99.90;;;;;;6093344;23;20533;-80
2022/11/07 10:31:14;;;;;;;12.77;5.03;;;12.00;99.90;;;;;;6118620;23;20507;-78
2022/11/07 10:34:01;;;;;;;15.68;5.10;;;12.10;99.90;;;;;;6119128;23;20129;-78
2022/11/07 10:36:30;;;;;;;13.77;5.38;;;12.10;99.90;;;;;;6092272;23;20049;-79
2022/11/07 10:38:56;;;;;;;14.90;4.93;;;12.10;99.90;;;;;;6119802;23;20124;-78
2022/11/07 10:41:23;;;;;;;11.93;4.30;;;;;;;;;;6093552;23;20021;-78
2022/11/07 10:43:52;;;;;;;11.43;4.80;;;;;;;;;;6119032;23;20123;-79
2022/11/07 10:46:21;;;;;;;13.25;5.75;;;;;;;;;;6093784;23;20412;-81
2022/11/07 10:48:55;;;;;;;12.52;5.40;;;;;;;;;;6091709;23;20145;-78
2022/11/07 10:51:32;;;;;;;13.13;4.28;;;;;;;;;;6094777;23;20084;-77
2022/11/07 10:53:58;;;;;;;15.25;5.15;;;;;;;;;;6117265;23;20018;-79
2022/11/07 10:56:24;;;;;;;9.20;4.45;;;;;;;;;;6118901;23;20018;-78
2022/11/07 10:58:50;;;;;;;20.38;5.95;;;;;;;;;;6118215;23;20389;-81
2022/11/07 11:01:22;;;;;;;12.30;5.13;;;;;;;;;;6117114;23;20024;-80
2022/11/07 11:03:48;;;;;;;11.50;5.03;;;;;;;;;;6118797;23;20017;-81
2022/11/07 11:06:17;;;;;;;10.65;4.28;;;;;;;;;;6117995;23;20013;-79
2022/11/07 11:08:44;;;;;;;10.75;5.45;;;;;;;;;;6117873;23;20014;-79
2022/11/07 11:11:14;;;;;;;15.80;4.90;;;;;;;;;;6116692;23;20410;-78
2022/11/07 11:13:41;;;;;;;18.75;5.63;;;;;;;;;;6092958;23;20104;-78
2022/11/07 11:16:13;;;;;;;9.95;5.20;;;;;;;;;;6116254;23;20093;-78
2022/11/07 11:18:47;;;;;;;10.13;4.88;;;;;;;;;;6090954;23;20349;-78
2022/11/07 11:21:13;;;;;;;12.43;5.05;;;;;;;;;;6114579;23;20018;-78
2022/11/07 11:23:42;;;;;;;15.40;5.63;;;;;;;;;;6116455;23;20022;-78
2022/11/07 11:26:15;;;;;;;18.10;6.10;;;;;;;;;;6115468;23;20508;-78
2022/11/07 11:29:16;;;;;;;;;;;12.20;99.90;;;;;;6116941;23;20092;-77
2022/11/07 11:31:49;;;;;;;9.50;4.72;;;12.40;99.90;;;;;;6007193;23;20000;-78
2022/11/07 11:34:20;;;;;;;10.80;5.28;;;12.40;99.90;;;;;;6100887;23;20679;-78
2022/11/07 11:37:13;;;;;;;13.48;5.78;;;12.50;99.90;;;;;;6120388;23;20025;-79
2022/11/07 11:39:44;;;;;;;10.68;5.18;;;12.50;99.90;;;;;;6085021;23;20365;-78
2022/11/07 11:42:32;;;;;;;12.50;5.13;;;12.50;99.90;;;;;;6070951;23;20116;-78
2022/11/07 11:45:16;;;;;;;13.00;5.00;;;12.50;99.90;;;;;;6119840;23;20104;-79
2022/11/07 11:47:52;;;;;;;11.90;5.25;;;12.60;99.90;;;;;;6095253;23;20018;-79
2022/11/07 11:50:20;;;;;;;16.20;5.65;;;;;;;;;;6071756;23;20385;-79
2022/11/07 11:52:46;;;;;;;12.48;5.95;;;;;;;;;;6117734;23;20430;-79
2022/11/07 11:55:13;;;;;;;10.95;5.53;;;;;;;;;;6094925;23;20361;-78
2022/11/07 11:57:52;;;;;;;10.48;5.43;;;;;;;;;;6119020;23;20172;-76
2022/11/07 12:00:19;;;;;;;9.77;6.30;;;;;;;;;;6117925;23;20445;-81
2022/11/07 12:02:54;;;;;;;15.55;6.43;;;;;;;;;;6116676;23;20014;-81
2022/11/07 12:05:39;;;;;;;15.23;5.50;;;;;;;;;;6069629;23;20156;-80
2022/11/07 12:08:21;;;;;;;11.52;5.25;;;;;;;;;;6117678;23;20515;-81
2022/11/07 12:11:06;;;;;;;13.30;5.78;;;;;;;;;;6068411;23;20018;-80
2022/11/07 12:13:37;;;;;;;7.80;5.00;;;;;;;;;;6094895;23;20060;-80
2022/11/07 12:16:08;;;;;;;12.73;5.07;;;;;;;;;;6095624;23;20301;-80
2022/11/07 12:18:37;;;;;;;10.55;5.22;;;;;;;;;;6096468;23;20326;-80
2022/11/07 12:21:09;;;;;;;12.73;5.30;;;;;;;;;;6120437;23;20416;-80
2022/11/07 12:23:36;;;;;;;9.85;5.82;;;;;;;;;;6095520;23;20045;-80
2022/11/07 12:26:05;;;;;;;12.40;4.82;;;;;;;;;;6096189;23;20021;-80
2022/11/07 12:28:50;;;;;;;6.63;3.85;;;;;;;;;;6120460;23;20503;-80
2022/11/07 12:31:53;;;;;;;15.80;5.15;;;12.60;99.90;;;;;;6096961;23;20536;-80
2022/11/07 12:34:23;;;;;;;8.27;4.85;;;;;;;;;;6095858;23;20043;-79
2022/11/07 12:37:15;;;;;;;18.98;5.88;;;;;;;;;;6117828;23;20186;-80
2022/11/07 12:39:57;;;;;;;7.83;4.50;;;;;;;;;;6089326;23;20093;-80
2022/11/07 12:42:41;;;;;;;8.35;4.65;;;;;;;;;;6118058;23;20021;-79
2022/11/07 12:45:26;;;;;;;10.00;4.53;;;;;;;;;;6118793;23;20435;-80
2022/11/07 12:47:56;;;;;;;11.77;4.95;;;;;;;;;;6118154;23;20097;-80
2022/11/07 12:50:28;;;;;;;14.38;5.30;;;;;;;;;;6115816;23;20227;-80
2022/11/07 12:52:54;;;;;;;10.20;4.38;;;;;;;;;;6094724;23;20511;-79
2022/11/07 12:55:29;;;;;;;11.50;6.65;;;;;;;;;;6114087;23;20349;-77
2022/11/07 12:57:55;;;;;;;13.15;5.82;;;;;;;;;;6114541;23;20104;-76
2022/11/07 13:00:21;;;;;;;15.68;6.38;;;;;;;;;;6092818;23;20033;-77
2022/11/07 13:02:54;;;;;;;15.35;5.70;;;;;;;;;;6091689;23;20133;-78
2022/11/07 13:05:38;;;;;;;10.88;5.50;;;;;;;;;;6117837;23;20014;-79
2022/11/07 13:08:16;;;;;;;9.65;5.13;;;;;;;;;;6069565;23;20014;-80
2022/11/07 13:10:51;;;;;;;10.43;5.22;;;;;;;;;;6117549;23;20045;-78
2022/11/07 13:13:21;;;;;;;21.83;7.30;;;;;;;;;;6117665;23;20511;-78
2022/11/07 13:15:47;;;;;;;13.13;5.90;;;;;;;;;;6116925;23;20014;-77
2022/11/07 13:18:33;;;;;;;14.05;5.75;;;;;;;;;;6116676;23;20533;-79
2022/11/07 13:21:04;;;;;;;10.82;5.32;;;;;;;;;;6092920;23;20022;-78
2022/11/07 13:23:31;;;;;;;13.98;5.63;;;;;;;;;;6093827;23;20020;-79
2022/11/07 13:25:58;;;;;;;10.55;5.82;;;;;;;;;;6117861;23;20014;-81
2022/11/07 13:28:24;;;;;;;12.18;5.18;;;;;;;;;;6046081;23;20026;-81
2022/11/07 13:30:54;;;;;;;18.35;5.93;;;;;;;;;;6118741;23;20022;-79
2022/11/07 13:33:25;;;;;;;7.60;4.65;;;;;;;;;;6121082;23;20028;-78
2022/11/07 13:35:56;;;;;;;12.38;4.97;;;;;;;;;;6120834;23;20033;-79
2022/11/07 13:38:23;;;;;;;11.30;5.38;;;;;;;;;;6118210;23;20014;-79
2022/11/07 13:40:51;;;;;;;11.63;5.63;;;;;;;;;;6068059;23;20028;-78
2022/11/07 13:43:26;;;;;;;16.52;5.70;;;;;;;;;;6093271;23;20021;-77
2022/11/07 13:46:04;;;;;;;15.70;5.85;;;;;;;;;;6115765;23;20365;-77
2022/11/07 13:48:33;;;;;;;12.35;4.78;;;;;;;;;;6119123;23;20018;-78
2022/11/07 13:51:05;;;;;;;7.90;4.22;;;;;;;;;;6093662;23;20018;-80
2022/11/07 13:53:47;;;;;;;19.60;5.97;;;;;;;;;;6118280;23;20022;-76
2022/11/07 13:56:13;;;;;;;11.53;4.57;;;;;;;;;;6093170;23;20041;-79
2022/11/07 13:58:41;;;;;;;11.48;5.60;;;;;;;;;;6093120;23;20033;-77
2022/11/07 14:01:11;;;;;;;11.95;6.30;;;;;;;;;;6118502;23;20053;-79
2022/11/07 14:03:38;;;;;;;8.38;4.97;;;;;;;;;;6093707;23;20380;-78
2022/11/07 14:06:04;;;;;;;19.02;5.95;;;;;;;;;;6117121;23;20022;-79
2022/11/07 14:08:33;;;;;;;12.95;5.72;;;;;;;;;;6116666;23;20452;-79
2022/11/07 14:10:59;;;;;;;14.32;6.38;;;;;;;;;;6118169;23;20021;-79
2022/11/07 14:13:27;;;;;;;13.52;5.28;;;;;;;;;;6116552;23;20306;-79
2022/11/07 14:15:58;;;;;;;10.52;5.40;;;;;;;;;;6116972;23;20117;-79
2022/11/07 14:18:26;;;;;;;11.13;5.90;;;;;;;;;;6092707;23;20018;-81
2022/11/07 14:20:54;;;;;;;12.07;5.72;;;;;;;;;;6117796;23;20021;-80
2022/11/07 14:23:22;;;;;;;20.92;7.28;;;;;;;;;;6070236;23;20017;-80
2022/11/07 14:25:55;;;;;;;20.70;6.13;;;;;;;;;;6117159;23;20014;-80
2022/11/07 14:28:21;;;;;;;15.18;4.95;;;;;;;;;;6093684;23;20010;-79
2022/11/07 14:30:50;;;;;;;8.05;5.25;;;;;;;;;;6115434;23;20021;-78
2022/11/07 14:33:17;;;;;;;9.85;4.93;;;;;;;;;;6116092;23;20018;-79
2022/11/07 14:35:45;;;;;;;11.65;6.40;;;;;;;;;;6068590;23;20053;-78
2022/11/07 14:38:16;;;;;;;13.15;5.03;;;;;;;;;;6092571;23;20022;-78
2022/11/07 14:40:42;;;;;;;12.93;5.15;;;;;;;;;;6094005;23;20018;-78
2022/11/07 14:43:17;;;;;;;16.77;6.03;;;;;;;;;;6093631;23;20025;-78
2022/11/07 14:45:44;;;;;;;15.90;4.90;;;;;;;;;;6116468;23;20093;-78
2022/11/07 14:48:16;;;;;;;14.88;5.18;;;;;;;;;;6089360;23;20468;-78